Time;durP1;ratioP1;P1;durP2;ratioP2;P2;SDS_P1;SDS_P2;PMS_P1;PMS_P2;Temp;Humidity;BMP_temperature;BMP_pressure;BME280_temperature;BME280_humidity;BME280_pressure;Samples;Min_cycle;Max_cycle;Signal;HPM_P1;HPM_P2
2024/01/09 00:00:00;;;;;;;11.73;5.63;;;-3.40;99.90;;;;;;5085313;28;20215;-60
2024/01/09 00:02:28;;;;;;;5.30;4.77;;;-3.40;99.90;;;;;;5090541;28;20231;-59
2024/01/09 00:04:56;;;;;;;8.10;5.00;;;-3.40;99.90;;;;;;5079814;28;20226;-60
2024/01/09 00:07:24;;;;;;;10.50;5.23;;;-3.40;99.90;;;;;;5080075;28;20309;-60
2024/01/09 00:09:53;;;;;;;6.33;5.10;;;-3.40;99.90;;;;;;5083689;28;20227;-60
2024/01/09 00:12:22;;;;;;;7.27;5.13;;;-3.40;99.90;;;;;;5083585;28;20219;-60
2024/01/09 00:14:50;;;;;;;6.00;5.07;;;-3.40;99.90;;;;;;5081232;28;20584;-60
2024/01/09 00:17:18;;;;;;;5.77;5.17;;;-3.40;99.90;;;;;;5084147;28;20329;-60
2024/01/09 00:19:47;;;;;;;7.10;4.90;;;-3.40;99.90;;;;;;5078933;28;20194;-60
2024/01/09 00:22:16;;;;;;;7.77;5.03;;;-3.40;99.90;;;;;;5084585;28;20224;-60
2024/01/09 00:24:47;;;;;;;6.87;5.33;;;-3.40;99.90;;;;;;5086929;28;20578;-59
2024/01/09 00:27:15;;;;;;;6.47;5.00;;;-3.40;99.90;;;;;;5083786;28;20819;-60
2024/01/09 00:29:45;;;;;;;8.00;5.40;;;-3.40;99.90;;;;;;5088853;28;20238;-59
2024/01/09 00:32:13;;;;;;;6.37;4.97;;;-3.30;99.90;;;;;;5087385;28;20203;-59
2024/01/09 00:34:42;;;;;;;7.10;5.00;;;-3.50;99.90;;;;;;5092221;28;20211;-59
2024/01/09 00:37:10;;;;;;;6.37;5.07;;;-3.40;99.90;;;;;;5088184;28;20851;-60
2024/01/09 00:39:38;;;;;;;8.20;6.38;;;-3.50;99.90;;;;;;5085205;28;20420;-59
2024/01/09 00:42:06;;;;;;;8.00;5.70;;;-3.40;99.90;;;;;;5086249;28;20625;-60
2024/01/09 00:44:35;;;;;;;7.47;5.50;;;-3.40;99.90;;;;;;5089623;28;20223;-60
2024/01/09 00:47:04;;;;;;;7.23;5.00;;;-3.50;99.90;;;;;;5087109;28;20213;-59
2024/01/09 00:49:33;;;;;;;10.30;5.43;;;-3.50;99.90;;;;;;5084364;28;20202;-59
2024/01/09 00:52:02;;;;;;;9.13;5.50;;;-3.50;99.90;;;;;;5086600;28;20220;-59
2024/01/09 00:54:30;;;;;;;9.47;5.43;;;-3.50;99.90;;;;;;5081545;28;20226;-60
2024/01/09 00:56:58;;;;;;;9.07;5.30;;;-3.60;99.90;;;;;;5086783;28;20228;-59
2024/01/09 00:59:29;;;;;;;9.17;5.27;;;-3.60;99.90;;;;;;5089267;28;20215;-60
2024/01/09 01:01:57;;;;;;;10.17;5.50;;;-3.60;99.90;;;;;;5083509;28;20212;-59
2024/01/09 01:04:27;;;;;;;7.33;5.10;;;-3.60;99.90;;;;;;5089836;28;20187;-60
2024/01/09 01:06:55;;;;;;;5.23;4.70;;;-3.60;99.90;;;;;;5089747;28;20228;-59
2024/01/09 01:09:23;;;;;;;8.33;5.33;;;-3.60;99.90;;;;;;5086976;28;20219;-60
2024/01/09 01:11:52;;;;;;;8.10;5.53;;;-3.60;99.90;;;;;;5085851;28;20234;-59
2024/01/09 01:14:20;;;;;;;6.77;5.20;;;-3.60;99.90;;;;;;5084661;28;20215;-59
2024/01/09 01:16:48;;;;;;;8.63;5.47;;;-3.60;99.90;;;;;;5086322;28;20763;-60
2024/01/09 01:19:17;;;;;;;7.80;5.03;;;-3.60;99.90;;;;;;5088317;28;20215;-60
2024/01/09 01:21:46;;;;;;;8.23;5.20;;;-3.70;99.90;;;;;;5086228;28;20302;-60
2024/01/09 01:24:15;;;;;;;7.80;5.17;;;-3.70;99.90;;;;;;5088367;28;20705;-60
2024/01/09 01:26:43;;;;;;;7.77;5.57;;;-3.70;99.90;;;;;;5081188;28;20235;-60
2024/01/09 01:29:12;;;;;;;6.83;5.10;;;-3.70;99.90;;;;;;5087389;28;20207;-59
2024/01/09 01:31:40;;;;;;;8.57;5.20;;;-3.70;99.90;;;;;;5089680;28;20195;-59
2024/01/09 01:34:08;;;;;;;7.20;5.33;;;-3.70;99.90;;;;;;5085031;28;20219;-59
2024/01/09 01:36:38;;;;;;;12.13;5.40;;;-3.70;99.90;;;;;;5085805;28;20227;-59
2024/01/09 01:39:07;;;;;;;8.37;5.57;;;-3.70;99.90;;;;;;5083655;28;20223;-59
2024/01/09 01:41:36;;;;;;;6.77;5.10;;;-3.70;99.90;;;;;;5086464;28;20230;-60
2024/01/09 01:44:16;;;;;;;9.57;5.63;;;-3.70;99.90;;;;;;5083039;28;20685;-60
2024/01/09 01:46:47;;;;;;;5.77;5.27;;;-3.80;99.90;;;;;;5081826;28;20270;-59
2024/01/09 01:49:17;;;;;;;7.77;5.13;;;-3.80;99.90;;;;;;5086144;28;20219;-60
2024/01/09 01:51:49;;;;;;;8.03;5.23;;;-3.80;99.90;;;;;;5078740;28;20220;-59
2024/01/09 01:54:21;;;;;;;8.50;5.27;;;-3.80;99.90;;;;;;5087291;28;20228;-59
2024/01/09 01:56:51;;;;;;;5.60;5.00;;;-3.80;99.90;;;;;;5086389;28;20226;-59
2024/01/09 01:59:22;;;;;;;9.20;5.27;;;-3.80;99.90;;;;;;5083493;28;20221;-59
2024/01/09 02:01:51;;;;;;;9.27;5.40;;;-3.80;99.90;;;;;;5085922;28;20271;-59
2024/01/09 02:04:20;;;;;;;9.10;5.33;;;-3.80;99.90;;;;;;5083422;28;20223;-59
2024/01/09 02:06:49;;;;;;;7.53;4.93;;;-3.80;99.90;;;;;;5084511;28;20219;-59
2024/01/09 02:09:19;;;;;;;9.63;5.20;;;-3.80;99.90;;;;;;5086943;27;20222;-59
2024/01/09 02:11:49;;;;;;;6.83;4.90;;;-3.80;99.90;;;;;;5083945;28;20216;-59
2024/01/09 02:14:18;;;;;;;6.77;5.30;;;-3.90;99.90;;;;;;5083997;27;20231;-60
2024/01/09 02:16:46;;;;;;;8.63;5.30;;;-3.90;99.90;;;;;;5090659;28;20584;-60
2024/01/09 02:19:14;;;;;;;8.37;5.17;;;-3.90;99.90;;;;;;5080819;28;20226;-60
2024/01/09 02:21:43;;;;;;;7.23;5.10;;;-3.90;99.90;;;;;;5082969;28;20340;-60
2024/01/09 02:24:11;;;;;;;7.50;4.87;;;-4.00;99.90;;;;;;5079561;28;20219;-60
2024/01/09 02:26:48;;;;;;;8.37;5.33;;;-3.90;99.90;;;;;;5086481;28;20225;-60
2024/01/09 02:29:34;;;;;;;5.50;4.90;;;-3.90;99.90;;;;;;5082217;28;20223;-60
2024/01/09 02:32:05;;;;;;;8.37;5.40;;;-3.90;99.90;;;;;;5087949;28;20219;-59
2024/01/09 02:34:35;;;;;;;10.17;5.33;;;-4.00;99.90;;;;;;5083241;28;20287;-59
2024/01/09 02:37:03;;;;;;;9.60;5.80;;;-4.00;99.90;;;;;;5081569;28;20299;-59
2024/01/09 02:39:32;;;;;;;8.17;5.37;;;-4.00;99.90;;;;;;5084009;28;20550;-60
2024/01/09 02:42:00;;;;;;;10.33;5.43;;;-4.00;99.90;;;;;;5082083;28;20250;-59
2024/01/09 02:44:28;;;;;;;8.60;5.50;;;-4.00;99.90;;;;;;5081883;28;20327;-59
2024/01/09 02:46:56;;;;;;;11.20;5.57;;;-4.00;99.90;;;;;;5082481;28;20207;-58
2024/01/09 02:49:26;;;;;;;7.60;5.60;;;-4.00;1.00;;;;;;5082329;28;20232;-59
2024/01/09 02:51:55;;;;;;;6.27;4.57;;;-4.00;1.00;;;;;;5088572;28;20569;-59
2024/01/09 02:54:23;;;;;;;8.10;4.90;;;-4.10;1.00;;;;;;5087428;28;20250;-59
2024/01/09 02:56:51;;;;;;;7.03;4.77;;;-4.00;1.00;;;;;;5083410;28;20319;-60
2024/01/09 02:59:20;;;;;;;8.20;5.77;;;-4.10;1.00;;;;;;5086763;28;20270;-59
2024/01/09 03:01:49;;;;;;;7.47;4.90;;;-4.10;1.00;;;;;;5084976;28;20294;-60
2024/01/09 03:04:17;;;;;;;26.00;5.57;;;-4.10;1.00;;;;;;5086518;28;20215;-59
2024/01/09 03:06:47;;;;;;;8.60;6.53;;;-4.10;1.00;;;;;;5082632;28;20432;-59
2024/01/09 03:09:16;;;;;;;8.67;5.33;;;-4.10;1.00;;;;;;5088093;28;20222;-60
2024/01/09 03:11:45;;;;;;;8.57;5.40;;;-4.10;1.00;;;;;;5082670;28;20307;-59
2024/01/09 03:14:14;;;;;;;8.77;5.20;;;-4.10;1.00;;;;;;5083730;28;20640;-59
2024/01/09 03:16:43;;;;;;;9.02;6.22;;;-4.10;1.00;;;;;;5083195;28;20430;-60
2024/01/09 03:19:11;;;;;;;8.73;5.80;;;-4.10;1.00;;;;;;5085805;28;21092;-59
2024/01/09 03:21:39;;;;;;;6.73;5.37;;;-4.20;1.00;;;;;;5079860;28;20223;-59
2024/01/09 03:24:09;;;;;;;9.53;5.13;;;-4.20;1.00;;;;;;5084664;28;20364;-60
2024/01/09 03:26:38;;;;;;;7.33;5.40;;;-4.20;1.00;;;;;;5101375;28;20256;-60
2024/01/09 03:29:06;;;;;;;8.60;5.30;;;-4.20;1.00;;;;;;5084303;28;20271;-59
2024/01/09 03:31:34;;;;;;;9.17;5.63;;;-4.20;1.00;;;;;;5085307;28;20256;-60
2024/01/09 03:34:02;;;;;;;8.73;5.10;;;-4.20;1.00;;;;;;5080923;28;20219;-60
2024/01/09 03:36:31;;;;;;;9.13;5.40;;;-4.20;1.00;;;;;;5082328;28;20314;-60
2024/01/09 03:39:00;;;;;;;7.03;5.40;;;-4.20;1.00;;;;;;5081992;28;20227;-60
2024/01/09 03:41:30;;;;;;;7.83;5.47;;;-4.20;1.00;;;;;;5087302;28;20310;-59
2024/01/09 03:43:58;;;;;;;9.60;5.43;;;-4.20;1.00;;;;;;5081939;28;20192;-58
2024/01/09 03:46:26;;;;;;;7.57;5.33;;;-4.20;1.00;;;;;;5085216;28;20222;-59
2024/01/09 03:48:56;;;;;;;10.37;4.93;;;-4.30;1.00;;;;;;5087806;28;20215;-60
2024/01/09 03:51:24;;;;;;;9.37;5.73;;;-4.30;1.00;;;;;;5081096;27;20227;-59
2024/01/09 03:53:53;;;;;;;6.93;5.03;;;-4.30;1.00;;;;;;5085963;28;20791;-59
2024/01/09 03:56:21;;;;;;;6.93;5.40;;;-4.30;1.00;;;;;;5083348;27;20219;-59
2024/01/09 03:58:51;;;;;;;11.57;5.53;;;-4.30;1.00;;;;;;5090929;28;20202;-59
2024/01/09 04:01:20;;;;;;;8.10;4.97;;;-4.30;1.00;;;;;;5082703;28;20652;-59
2024/01/09 04:03:48;;;;;;;8.43;4.93;;;-4.40;1.00;;;;;;5082923;28;20278;-59
2024/01/09 04:06:17;;;;;;;10.23;5.33;;;-4.40;1.00;;;;;;5085509;27;20460;-59
2024/01/09 04:08:45;;;;;;;7.83;5.37;;;-4.30;1.00;;;;;;5078942;28;20227;-59
2024/01/09 04:11:14;;;;;;;9.57;5.30;;;-4.30;1.00;;;;;;5084114;28;20240;-60
2024/01/09 04:13:42;;;;;;;5.40;4.63;;;-4.30;1.00;;;;;;5085087;28;20199;-59
2024/01/09 04:16:14;;;;;;;8.37;5.20;;;-4.40;1.00;;;;;;5084372;28;20203;-59
2024/01/09 04:18:42;;;;;;;6.20;4.77;;;-4.40;1.00;;;;;;5082014;28;20227;-59
2024/01/09 04:21:10;;;;;;;7.70;5.43;;;-4.40;1.00;;;;;;5081394;28;20219;-61
2024/01/09 04:23:39;;;;;;;7.83;5.33;;;-4.40;1.00;;;;;;5082030;28;20233;-59
2024/01/09 04:26:07;;;;;;;6.03;5.07;;;-4.40;1.00;;;;;;5081673;28;20199;-59
2024/01/09 04:28:35;;;;;;;7.90;5.00;;;-4.40;1.00;;;;;;5079534;28;20212;-59
2024/01/09 04:31:05;;;;;;;6.27;4.70;;;-4.50;1.00;;;;;;5082921;27;20216;-60
2024/01/09 04:33:35;;;;;;;7.87;5.30;;;-4.50;1.00;;;;;;5083625;28;20230;-60
2024/01/09 04:36:04;;;;;;;7.97;5.23;;;-4.50;1.00;;;;;;5084919;28;20309;-60
2024/01/09 04:38:32;;;;;;;8.33;5.40;;;-4.40;1.00;;;;;;5082816;28;20221;-59
2024/01/09 04:41:01;;;;;;;9.70;5.03;;;-4.50;1.00;;;;;;5084701;28;20235;-60
2024/01/09 04:43:29;;;;;;;8.77;5.63;;;-4.50;1.00;;;;;;5083512;28;20202;-60
2024/01/09 04:45:57;;;;;;;7.10;4.83;;;-4.60;1.00;;;;;;5086555;27;20313;-60
2024/01/09 04:48:25;;;;;;;6.63;5.00;;;-4.60;1.00;;;;;;5080265;28;20230;-60
2024/01/09 04:50:55;;;;;;;5.93;4.80;;;-4.60;1.00;;;;;;5087341;28;20303;-60
2024/01/09 04:53:23;;;;;;;7.00;4.83;;;-4.50;1.00;;;;;;5081008;28;20238;-60
2024/01/09 04:55:52;;;;;;;5.40;4.87;;;-4.50;1.00;;;;;;5084124;28;20229;-60
2024/01/09 04:58:20;;;;;;;6.87;4.37;;;-4.60;1.00;;;;;;5082927;28;20211;-60
2024/01/09 05:00:48;;;;;;;6.43;4.60;;;-4.60;1.00;;;;;;5078555;28;20679;-59
2024/01/09 05:03:17;;;;;;;10.67;5.50;;;-4.60;1.00;;;;;;5083808;28;20222;-60
2024/01/09 05:05:45;;;;;;;6.10;5.10;;;-4.60;1.00;;;;;;5083888;28;20692;-60
2024/01/09 05:08:15;;;;;;;9.20;4.97;;;-4.60;1.00;;;;;;5079301;28;20218;-60
2024/01/09 05:10:43;;;;;;;9.70;4.83;;;-4.60;1.00;;;;;;5084511;28;20219;-60
2024/01/09 05:13:11;;;;;;;5.57;5.03;;;-4.60;1.00;;;;;;5081136;28;20227;-60
2024/01/09 05:15:39;;;;;;;6.53;4.57;;;-4.60;1.00;;;;;;5096722;28;20732;-60
2024/01/09 05:18:08;;;;;;;8.20;5.50;;;-4.60;1.00;;;;;;5086139;28;20219;-61
2024/01/09 05:20:36;;;;;;;9.07;5.40;;;-4.60;1.00;;;;;;5082468;28;20223;-60
2024/01/09 05:23:06;;;;;;;6.53;4.90;;;-4.60;1.00;;;;;;5088147;28;20514;-59
2024/01/09 05:25:36;;;;;;;6.67;4.63;;;-4.60;1.00;;;;;;5090839;28;20545;-60
2024/01/09 05:28:04;;;;;;;7.70;5.13;;;-4.60;1.00;;;;;;5084925;28;20222;-60
2024/01/09 05:30:33;;;;;;;7.97;5.33;;;-4.60;1.00;;;;;;5088561;27;20222;-60
2024/01/09 05:33:01;;;;;;;8.80;4.70;;;-4.60;1.00;;;;;;5086875;28;20255;-60
2024/01/09 05:35:30;;;;;;;10.80;5.17;;;-4.60;1.00;;;;;;5088779;28;20311;-60
2024/01/09 05:37:58;;;;;;;5.90;4.50;;;-4.60;1.00;;;;;;5088618;28;20193;-59
2024/01/09 05:40:43;;;;;;;7.97;4.50;;;-4.70;1.00;;;;;;5088992;28;20188;-60
2024/01/09 05:43:11;;;;;;;9.40;5.20;;;-4.70;1.00;;;;;;5086799;28;20321;-60
2024/01/09 05:45:39;;;;;;;9.07;4.70;;;-4.70;1.00;;;;;;5087274;28;20225;-60
2024/01/09 05:48:08;;;;;;;7.73;4.97;;;-4.70;1.00;;;;;;5085259;28;20241;-59
2024/01/09 05:50:36;;;;;;;8.37;4.90;;;-4.70;1.00;;;;;;5080673;28;20212;-60
2024/01/09 05:53:05;;;;;;;6.23;4.73;;;-4.70;1.00;;;;;;5083190;28;20562;-60
2024/01/09 05:55:34;;;;;;;7.87;4.90;;;-4.80;1.00;;;;;;5084558;28;20198;-60
2024/01/09 05:58:04;;;;;;;5.47;4.90;;;-4.70;1.00;;;;;;5083145;28;21111;-60
2024/01/09 06:00:33;;;;;;;6.00;4.67;;;-4.70;1.00;;;;;;5086198;28;20220;-60
2024/01/09 06:03:01;;;;;;;7.23;5.00;;;-4.70;1.00;;;;;;5084060;28;20732;-60
2024/01/09 06:05:30;;;;;;;6.57;4.53;;;-4.70;1.00;;;;;;5086771;28;20226;-60
2024/01/09 06:07:58;;;;;;;6.17;4.93;;;-4.80;1.00;;;;;;5087485;28;20214;-59
2024/01/09 06:10:26;;;;;;;7.10;5.17;;;-4.80;1.00;;;;;;5087345;28;20184;-60
2024/01/09 06:12:54;;;;;;;6.57;4.97;;;-4.80;1.00;;;;;;5085944;28;20683;-60
2024/01/09 06:15:24;;;;;;;6.67;4.70;;;-4.80;1.00;;;;;;5085398;28;20220;-59
2024/01/09 06:17:54;;;;;;;7.63;5.20;;;-4.80;1.00;;;;;;5086050;28;20219;-60
2024/01/09 06:20:23;;;;;;;7.60;5.10;;;-4.80;1.00;;;;;;5081432;28;20223;-60
2024/01/09 06:22:52;;;;;;;6.13;4.87;;;-4.80;1.00;;;;;;5085110;28;20195;-59
2024/01/09 06:25:20;;;;;;;10.03;4.60;;;-4.80;1.00;;;;;;5091839;28;20268;-60
2024/01/09 06:27:48;;;;;;;7.47;5.03;;;-4.80;1.00;;;;;;5088400;27;20223;-59
2024/01/09 06:30:17;;;;;;;5.80;4.40;;;-4.80;1.00;;;;;;5080577;28;20686;-59
2024/01/09 06:32:47;;;;;;;5.87;4.80;;;-4.90;1.00;;;;;;5087744;27;20215;-60
2024/01/09 06:35:16;;;;;;;4.97;4.47;;;-4.90;1.00;;;;;;5082370;28;20329;-59
2024/01/09 06:37:44;;;;;;;6.17;4.63;;;-4.80;1.00;;;;;;5082865;28;20219;-59
2024/01/09 06:40:13;;;;;;;9.40;5.10;;;-4.90;1.00;;;;;;5083294;28;20237;-58
2024/01/09 06:42:41;;;;;;;10.23;4.60;;;-4.90;1.00;;;;;;5084799;27;20226;-59
2024/01/09 06:45:10;;;;;;;6.67;4.93;;;-4.90;1.00;;;;;;5080503;28;20223;-59
2024/01/09 06:47:40;;;;;;;7.70;5.20;;;-4.90;1.00;;;;;;5084595;28;20227;-59
2024/01/09 06:50:10;;;;;;;5.43;4.57;;;-5.00;1.00;;;;;;5081688;28;20232;-59
2024/01/09 06:52:57;;;;;;;9.83;5.00;;;-4.90;1.00;;;;;;5086774;28;20188;-59
2024/01/09 06:55:25;;;;;;;7.73;5.20;;;-5.00;1.00;;;;;;5082712;28;20739;-59
2024/01/09 06:57:54;;;;;;;8.30;4.97;;;-5.00;1.00;;;;;;5082580;28;20207;-59
2024/01/09 07:00:22;;;;;;;12.57;5.03;;;-5.00;1.00;;;;;;5084380;28;20226;-59
2024/01/09 07:02:50;;;;;;;12.40;5.20;;;-5.00;1.00;;;;;;5083088;28;20216;-59
2024/01/09 07:05:20;;;;;;;5.70;4.60;;;-5.10;1.00;;;;;;5078684;28;20297;-59
2024/01/09 07:07:48;;;;;;;9.47;5.50;;;-5.10;1.00;;;;;;5083021;28;20215;-59
2024/01/09 07:10:18;;;;;;;8.97;5.40;;;-5.10;1.00;;;;;;5079545;28;20223;-59
2024/01/09 07:12:47;;;;;;;6.50;4.93;;;-5.10;1.00;;;;;;5080676;28;20224;-59
2024/01/09 07:15:15;;;;;;;6.67;4.90;;;-5.10;1.00;;;;;;5080089;28;20216;-60
2024/01/09 07:17:45;;;;;;;5.80;4.57;;;-5.10;1.00;;;;;;5089483;28;20227;-59
2024/01/09 07:20:15;;;;;;;7.63;5.20;;;-5.10;1.00;;;;;;5086796;28;20200;-58
2024/01/09 07:22:45;;;;;;;6.27;5.10;;;-5.10;1.00;;;;;;5083906;28;20207;-59
2024/01/09 07:25:16;;;;;;;9.50;5.43;;;-5.10;1.00;;;;;;5080182;28;20310;-59
2024/01/09 07:27:44;;;;;;;10.40;5.77;;;-5.10;1.00;;;;;;5081149;28;20227;-60
2024/01/09 07:30:14;;;;;;;7.93;5.20;;;-5.10;1.00;;;;;;5078681;28;20223;-59
2024/01/09 07:32:42;;;;;;;12.10;5.03;;;-5.10;1.00;;;;;;5080029;28;20234;-59
2024/01/09 07:35:11;;;;;;;8.93;5.00;;;-5.10;1.00;;;;;;5078601;28;20689;-60
2024/01/09 07:37:39;;;;;;;10.00;5.40;;;-5.20;1.00;;;;;;5081210;28;20195;-60
2024/01/09 07:40:11;;;;;;;11.40;5.40;;;-5.20;1.00;;;;;;5078923;28;20307;-60
2024/01/09 07:42:39;;;;;;;7.17;5.10;;;-5.20;1.00;;;;;;5082785;28;20311;-60
2024/01/09 07:45:20;;;;;;;6.90;4.67;;;-5.10;1.00;;;;;;5081233;28;20628;-60
2024/01/09 07:47:49;;;;;;;9.97;5.03;;;-5.10;1.00;;;;;;5081635;28;20238;-60
2024/01/09 07:50:17;;;;;;;10.13;5.07;;;-5.20;1.00;;;;;;5079633;28;20720;-59
2024/01/09 07:52:47;;;;;;;9.00;5.03;;;-5.20;1.00;;;;;;5077912;28;20203;-60
2024/01/09 07:55:16;;;;;;;10.50;5.27;;;-5.20;1.00;;;;;;5076242;28;20215;-60
2024/01/09 07:57:44;;;;;;;8.83;4.93;;;-5.10;1.00;;;;;;5076999;28;20584;-60
2024/01/09 08:00:14;;;;;;;9.03;5.27;;;-5.10;1.00;;;;;;5081537;28;20215;-60
2024/01/09 08:02:42;;;;;;;8.40;5.27;;;-5.10;1.00;;;;;;5078234;28;20230;-60
2024/01/09 08:05:10;;;;;;;8.13;5.30;;;-5.10;1.00;;;;;;5081201;28;20226;-60
2024/01/09 08:07:39;;;;;;;11.90;5.60;;;-5.10;1.00;;;;;;5083896;28;20538;-59
2024/01/09 08:10:08;;;;;;;8.40;5.20;;;-5.10;1.00;;;;;;5081827;28;20215;-60
2024/01/09 08:12:38;;;;;;;10.33;5.47;;;-5.10;1.00;;;;;;5078346;28;20295;-59
2024/01/09 08:15:07;;;;;;;8.53;5.33;;;-5.10;1.00;;;;;;5083179;28;20686;-60
2024/01/09 08:17:35;;;;;;;7.03;5.50;;;-5.10;1.00;;;;;;5076157;28;21251;-59
2024/01/09 08:20:04;;;;;;;8.10;5.23;;;-5.00;1.00;;;;;;5082406;28;20698;-59
2024/01/09 08:22:32;;;;;;;7.23;5.47;;;-5.00;1.00;;;;;;5077550;28;20207;-60
2024/01/09 08:25:01;;;;;;;9.70;5.63;;;-5.00;1.00;;;;;;5082427;28;20223;-59
2024/01/09 08:27:29;;;;;;;11.90;5.57;;;-5.00;1.00;;;;;;5081908;28;20224;-60
2024/01/09 08:30:02;;;;;;;10.43;5.50;;;-5.00;1.00;;;;;;5080989;28;20231;-60
2024/01/09 08:32:30;;;;;;;8.17;5.47;;;-5.00;1.00;;;;;;5076866;28;20260;-60
2024/01/09 08:34:59;;;;;;;7.60;5.40;;;-5.00;1.00;;;;;;5076682;28;20220;-60
2024/01/09 08:37:27;;;;;;;9.37;5.50;;;-5.00;1.00;;;;;;5080416;28;20199;-60
2024/01/09 08:39:56;;;;;;;6.80;4.83;;;-4.90;1.00;;;;;;5075625;28;20215;-59
2024/01/09 08:42:24;;;;;;;9.40;5.80;;;-4.90;1.00;;;;;;5082261;28;20326;-59
2024/01/09 08:44:52;;;;;;;8.17;5.70;;;-4.90;1.00;;;;;;5082841;28;20241;-59
2024/01/09 08:47:22;;;;;;;9.63;5.97;;;-4.80;1.00;;;;;;5079233;28;20219;-59
2024/01/09 08:49:50;;;;;;;13.23;6.10;;;-4.80;1.00;;;;;;5082368;28;20214;-60
2024/01/09 08:52:24;;;;;;;10.80;5.40;;;-4.80;1.00;;;;;;5082007;28;20223;-59
2024/01/09 08:54:53;;;;;;;10.07;5.43;;;-4.80;1.00;;;;;;5083749;28;20600;-59
2024/01/09 08:57:22;;;;;;;10.27;4.83;;;-4.70;1.00;;;;;;5083357;28;20278;-59
2024/01/09 08:59:50;;;;;;;11.17;5.73;;;-4.70;1.00;;;;;;5081951;28;20307;-59
2024/01/09 09:02:19;;;;;;;9.03;5.70;;;-4.60;1.00;;;;;;5083581;28;20306;-60
2024/01/09 09:04:48;;;;;;;7.47;5.37;;;-4.60;1.00;;;;;;5082448;28;20245;-60
2024/01/09 09:07:18;;;;;;;8.27;5.10;;;-4.60;1.00;;;;;;5085383;28;20223;-60
2024/01/09 09:09:46;;;;;;;8.70;5.67;;;-4.60;1.00;;;;;;5083407;28;20319;-61
2024/01/09 09:12:17;;;;;;;6.23;5.43;;;-4.60;1.00;;;;;;5087741;28;20237;-60
2024/01/09 09:14:45;;;;;;;12.63;5.67;;;-4.50;1.00;;;;;;5084241;28;20212;-59
2024/01/09 09:17:15;;;;;;;9.97;5.50;;;-4.40;1.00;;;;;;5081170;28;20212;-60
2024/01/09 09:19:44;;;;;;;12.70;6.50;;;-4.30;1.00;;;;;;5080402;28;20751;-59
2024/01/09 09:22:13;;;;;;;8.60;5.53;;;-4.20;1.00;;;;;;5081154;28;20223;-60
2024/01/09 09:24:43;;;;;;;6.83;5.07;;;-4.10;1.00;;;;;;5085206;28;20239;-60
2024/01/09 09:27:11;;;;;;;6.87;5.63;;;-4.00;1.00;;;;;;5084525;28;20225;-60
2024/01/09 09:29:39;;;;;;;8.27;5.93;;;-3.90;1.00;;;;;;5078028;28;20215;-60
2024/01/09 09:32:12;;;;;;;8.33;5.13;;;-3.80;1.00;;;;;;5081409;28;20200;-60
2024/01/09 09:34:41;;;;;;;6.90;5.30;;;-3.70;1.00;;;;;;5086441;28;20306;-60
2024/01/09 09:37:15;;;;;;;10.13;5.60;;;-3.50;1.00;;;;;;5081900;28;20219;-60
2024/01/09 09:39:44;;;;;;;8.60;5.40;;;-3.40;1.00;;;;;;5083128;28;20215;-59
2024/01/09 09:42:12;;;;;;;8.63;5.17;;;-3.30;1.00;;;;;;5084324;28;20341;-60
2024/01/09 09:44:42;;;;;;;10.43;5.60;;;-3.20;1.00;;;;;;5085146;27;20246;-60
2024/01/09 09:47:11;;;;;;;7.90;5.47;;;-3.10;63.90;;;;;;5085925;28;20190;-60
2024/01/09 09:49:40;;;;;;;8.70;5.60;;;-3.00;96.60;;;;;;5081793;28;20210;-60
2024/01/09 09:52:10;;;;;;;13.10;5.17;;;-2.90;99.90;;;;;;5083121;28;20219;-59
2024/01/09 09:54:41;;;;;;;9.53;5.80;;;-2.70;99.90;;;;;;5083968;28;20221;-59
2024/01/09 09:57:09;;;;;;;9.03;5.23;;;-2.70;99.90;;;;;;5081722;28;20241;-60
2024/01/09 09:59:37;;;;;;;8.10;5.50;;;-2.60;99.90;;;;;;5082876;28;20215;-60
2024/01/09 10:02:07;;;;;;;8.37;5.80;;;-2.30;99.90;;;;;;5081994;28;20263;-60
2024/01/09 10:04:45;;;;;;;10.70;5.40;;;-2.10;99.90;;;;;;5083594;28;20219;-60
2024/01/09 10:07:16;;;;;;;8.70;6.10;;;-1.90;99.90;;;;;;5080501;28;20581;-60
2024/01/09 10:09:51;;;;;;;9.20;5.50;;;-1.60;99.90;;;;;;5085738;28;20219;-59
2024/01/09 10:12:24;;;;;;;9.87;5.63;;;-1.40;99.90;;;;;;5086638;28;20210;-60
2024/01/09 10:15:07;;;;;;;8.73;5.40;;;-1.30;99.90;;;;;;5082731;28;20232;-60
2024/01/09 10:17:36;;;;;;;6.87;5.60;;;-1.40;99.90;;;;;;5080947;28;20291;-60
2024/01/09 10:20:08;;;;;;;10.83;5.63;;;-1.40;99.90;;;;;;5083415;28;20211;-60
2024/01/09 10:22:38;;;;;;;9.33;5.70;;;-1.40;99.90;;;;;;5085668;28;20543;-60
2024/01/09 10:25:10;;;;;;;12.50;5.87;;;-1.30;99.90;;;;;;5083402;28;20318;-60
2024/01/09 10:27:39;;;;;;;7.87;5.57;;;-1.20;99.90;;;;;;5083991;28;20227;-61
2024/01/09 10:30:09;;;;;;;10.00;5.73;;;-1.10;99.90;;;;;;5081120;28;20230;-59
2024/01/09 10:32:40;;;;;;;9.00;5.57;;;-1.10;99.90;;;;;;5084548;28;20711;-59
2024/01/09 10:35:13;;;;;;;8.37;5.90;;;-1.20;99.90;;;;;;5082546;28;20255;-60
2024/01/09 10:37:43;;;;;;;7.77;5.57;;;-1.20;99.90;;;;;;5084350;28;20200;-60
2024/01/09 10:40:14;;;;;;;9.90;6.33;;;-1.30;99.90;;;;;;5084297;28;20322;-59
2024/01/09 10:42:47;;;;;;;10.40;6.00;;;-1.30;99.90;;;;;;5085543;28;20222;-59
2024/01/09 10:45:16;;;;;;;7.80;6.10;;;-1.20;99.90;;;;;;5081341;27;20230;-59
2024/01/09 10:47:44;;;;;;;8.50;5.87;;;-1.20;99.90;;;;;;5083356;28;20249;-59
2024/01/09 10:50:14;;;;;;;11.47;5.90;;;-1.10;99.90;;;;;;5080160;28;20242;-59
2024/01/09 10:52:45;;;;;;;5.00;4.50;;;-1.10;99.90;;;;;;5084200;28;20712;-60
2024/01/09 10:55:16;;;;;;;7.67;5.50;;;-1.20;99.90;;;;;;5077698;28;20239;-59
2024/01/09 10:57:45;;;;;;;9.00;6.00;;;-1.10;99.90;;;;;;5080196;28;20826;-60
2024/01/09 11:00:16;;;;;;;10.60;5.97;;;-1.00;99.90;;;;;;5081812;28;20223;-60
2024/01/09 11:02:44;;;;;;;9.17;5.93;;;-1.00;99.90;;;;;;5083471;28;20254;-60
2024/01/09 11:05:13;;;;;;;8.07;5.67;;;-0.80;99.90;;;;;;5084729;28;20712;-59
2024/01/09 11:07:44;;;;;;;8.57;5.53;;;-0.60;99.90;;;;;;5086759;28;20554;-60
2024/01/09 11:10:18;;;;;;;11.20;5.83;;;-0.40;99.90;;;;;;5078520;28;20215;-60
2024/01/09 11:12:50;;;;;;;9.40;6.40;;;-0.50;99.90;;;;;;5084352;28;20705;-60
2024/01/09 11:15:24;;;;;;;8.90;5.63;;;-0.30;99.90;;;;;;5081191;28;20223;-59
2024/01/09 11:17:56;;;;;;;6.30;5.20;;;-0.30;99.90;;;;;;5087061;28;20250;-60
2024/01/09 11:20:28;;;;;;;7.07;5.57;;;-0.40;99.90;;;;;;5084617;28;20223;-59
2024/01/09 11:22:56;;;;;;;9.40;5.40;;;-0.60;99.90;;;;;;5087086;28;20195;-58
2024/01/09 11:25:28;;;;;;;9.23;5.73;;;-0.60;99.90;;;;;;5085421;28;20581;-58
2024/01/09 11:27:57;;;;;;;11.43;5.63;;;-0.40;99.90;;;;;;5085150;28;20214;-59
2024/01/09 11:30:28;;;;;;;9.37;5.57;;;-0.30;99.90;;;;;;5085436;28;20230;-59
2024/01/09 11:32:59;;;;;;;8.53;5.87;;;0.00;99.90;;;;;;5081278;28;20851;-59
2024/01/09 11:35:28;;;;;;;8.47;5.60;;;0.00;99.90;;;;;;5083791;28;20224;-59
2024/01/09 11:37:59;;;;;;;8.20;5.27;;;-0.10;99.90;;;;;;5091672;28;20252;-59
2024/01/09 11:40:31;;;;;;;7.60;5.83;;;0.00;99.90;;;;;;5081887;28;20231;-59
2024/01/09 11:43:00;;;;;;;11.83;5.40;;;-0.10;99.90;;;;;;5077732;28;20737;-59
2024/01/09 11:45:28;;;;;;;8.03;6.03;;;-0.20;99.90;;;;;;5083886;28;20227;-59
2024/01/09 11:47:56;;;;;;;10.87;5.80;;;-0.10;99.90;;;;;;5082710;28;20689;-59
2024/01/09 11:50:25;;;;;;;7.90;5.20;;;0.20;99.90;;;;;;5086462;28;20272;-59
2024/01/09 11:52:53;;;;;;;7.13;5.77;;;0.00;99.90;;;;;;5082658;28;20195;-59
2024/01/09 11:55:22;;;;;;;9.87;5.70;;;0.20;99.90;;;;;;5077955;28;20238;-59
2024/01/09 11:57:53;;;;;;;6.50;5.60;;;0.20;99.90;;;;;;5080379;28;20673;-59
2024/01/09 12:00:22;;;;;;;7.90;5.20;;;0.20;99.90;;;;;;5082349;28;20239;-60
2024/01/09 12:02:51;;;;;;;6.63;5.30;;;0.00;99.90;;;;;;5083517;28;20260;-59
2024/01/09 12:05:19;;;;;;;6.53;5.10;;;0.10;99.90;;;;;;5085194;28;20247;-60
2024/01/09 12:07:48;;;;;;;7.87;5.50;;;0.20;99.90;;;;;;5079233;28;20562;-60
2024/01/09 12:10:17;;;;;;;8.10;5.00;;;0.20;99.90;;;;;;5080685;28;20223;-59
2024/01/09 12:13:05;;;;;;;9.43;5.50;;;0.20;99.90;;;;;;5080151;28;20220;-59
2024/01/09 12:15:33;;;;;;;8.60;5.33;;;0.30;99.90;;;;;;5083918;28;20227;-60
2024/01/09 12:18:02;;;;;;;7.90;5.60;;;0.30;99.90;;;;;;5079909;28;20227;-60
2024/01/09 12:20:31;;;;;;;7.63;5.07;;;0.10;99.90;;;;;;5080022;28;20305;-60
2024/01/09 12:23:01;;;;;;;9.37;5.60;;;0.00;99.90;;;;;;5084800;28;20287;-59
2024/01/09 12:25:30;;;;;;;5.67;4.93;;;0.10;99.90;;;;;;5087828;28;20282;-60
2024/01/09 12:27:59;;;;;;;5.73;5.03;;;0.20;99.90;;;;;;5087601;28;20211;-59
2024/01/09 12:30:31;;;;;;;8.23;6.20;;;0.10;99.90;;;;;;5081224;28;20851;-60
2024/01/09 12:33:00;;;;;;;7.17;5.00;;;0.30;99.90;;;;;;5087211;28;20306;-60
2024/01/09 12:35:28;;;;;;;7.13;5.47;;;0.30;99.90;;;;;;5082956;28;20223;-60
2024/01/09 12:37:57;;;;;;;10.03;5.27;;;0.30;99.90;;;;;;5084241;28;20341;-60
2024/01/09 12:40:25;;;;;;;6.90;5.23;;;0.40;99.90;;;;;;5087275;28;20295;-59
2024/01/09 12:43:10;;;;;;;6.10;5.13;;;0.30;99.90;;;;;;5087994;28;21038;-60
2024/01/09 12:45:41;;;;;;;5.67;5.00;;;0.50;99.90;;;;;;5085491;28;20227;-60
2024/01/09 12:48:10;;;;;;;6.97;5.10;;;0.60;99.90;;;;;;5087797;28;20575;-60
2024/01/09 12:50:38;;;;;;;5.83;5.23;;;0.80;99.90;;;;;;5087817;28;20582;-60
2024/01/09 12:53:07;;;;;;;7.83;5.40;;;0.80;99.90;;;;;;5085871;28;20196;-60
2024/01/09 12:55:35;;;;;;;7.67;5.50;;;0.80;99.90;;;;;;5082303;28;20183;-60
2024/01/09 12:58:04;;;;;;;5.80;4.57;;;0.90;99.90;;;;;;5092989;28;20269;-60
2024/01/09 13:00:32;;;;;;;7.07;5.27;;;0.90;99.90;;;;;;5087607;28;20223;-60
2024/01/09 13:03:02;;;;;;;8.90;5.40;;;0.90;99.90;;;;;;5089574;28;20234;-60